Irvington, New Jersey
Current Conditions -  °F | °C
As of 6:51 PM on Wednesday 22 Oct 2014 (Local Time) from KEWR Reporting Station
Moderate Rain Moderate Rain  
Wind Chill: 11°   Ceiling: 2400
Heat Index: 11°   Visibility: 6mi
Dew Point: 10°   Wind: 18mph
Humidity: 93%   Direction: 360°N
Pressure: 29.82"   Gusts: 26mph
Location:  40.73°N, 74.23°W
Report Text: KEWR 222251Z 36016G23KT 6SM RA BR FEW013 BKN024 OVC036 11/10 A2982 RMK AO2 SLP098 P0005 T01110100
Loading
Personal Weather Stations






























Interactive Weather Map
Tropical Storm Tracking
New forecast layout! Learn more

10-Day Weather Forecast

Advertisements
Track Severe Weather on mobile